EZY35UC LGKO-EGCC
Flight info
| Callsign | EZY35UC |
|---|---|
| Flight time | N/A |
| Altitude | 34000 |
| Route | LARKI UL609 MES DCT KOROS DCT DISOR DCT LONTA/N0445F360 UL608 DOLEV DCT YUYUH DCT GENLU DCT PODOB DCT BOSNA DCT MARIL DCT KUSIB DCT GORPA DCT MODSA DCT BABEG DCT LIRSU DCT DENUT L610 LAM UN57 WELIN T420 ELVOS |
| Aircraft | A320/M-SDE3FGHIRWY/LB1 |
Departure
| Time | 2026-05-04 21:16 |
|---|---|
| Airport | Kos International Airport "Ippokratis" (LGKO) |
Arrival
| Time | N/A |
|---|---|
| Airport | Manchester Airport (EGCC) |
| Time | Latitude | Longitude | Altitude | Speed | Heading |
|---|---|---|---|---|---|
| 2026-05-04 20:44 | 36.80075 | 27.08974 | 445 ft | 0 kts | 57° |
| 2026-05-04 21:07 | 36.80075 | 27.08973 | 428 ft | 1 kts | 57° |
| 2026-05-04 21:07 | 36.80067 | 27.08957 | 428 ft | 3 kts | 59° |
| 2026-05-04 21:08 | 36.80057 | 27.08935 | 438 ft | 3 kts | 66° |
| 2026-05-04 21:08 | 36.80050 | 27.08912 | 431 ft | 3 kts | 92° |
| 2026-05-04 21:08 | 36.80054 | 27.08894 | 441 ft | 1 kts | 147° |
| 2026-05-04 21:08 | 36.80056 | 27.08892 | 441 ft | 0 kts | 149° |
| 2026-05-04 21:10 | 36.80055 | 27.08893 | 441 ft | 1 kts | 149° |
| 2026-05-04 21:10 | 36.80020 | 27.08919 | 444 ft | 8 kts | 149° |
| 2026-05-04 21:11 | 36.79979 | 27.08949 | 438 ft | 6 kts | 149° |
| 2026-05-04 21:11 | 36.79945 | 27.08974 | 440 ft | 8 kts | 154° |
| 2026-05-04 21:11 | 36.79874 | 27.08987 | 433 ft | 14 kts | 179° |
| 2026-05-04 21:11 | 36.79776 | 27.08991 | 437 ft | 14 kts | 178° |
| 2026-05-04 21:12 | 36.79682 | 27.08994 | 433 ft | 14 kts | 179° |
| 2026-05-04 21:12 | 36.79586 | 27.09017 | 427 ft | 15 kts | 155° |
| 2026-05-04 21:12 | 36.79487 | 27.09094 | 440 ft | 18 kts | 147° |
| 2026-05-04 21:12 | 36.79372 | 27.09185 | 433 ft | 21 kts | 149° |
| 2026-05-04 21:13 | 36.79234 | 27.09288 | 430 ft | 25 kts | 149° |
| 2026-05-04 21:13 | 36.79086 | 27.09405 | 431 ft | 25 kts | 147° |
| 2026-05-04 21:13 | 36.78945 | 27.09516 | 435 ft | 22 kts | 148° |
| 2026-05-04 21:13 | 36.78824 | 27.09611 | 437 ft | 19 kts | 149° |
| 2026-05-04 21:14 | 36.78716 | 27.09692 | 443 ft | 17 kts | 149° |
| 2026-05-04 21:14 | 36.78627 | 27.09762 | 444 ft | 14 kts | 147° |
| 2026-05-04 21:14 | 36.78597 | 27.09833 | 443 ft | 8 kts | 103° |
| 2026-05-04 21:14 | 36.78561 | 27.09840 | 443 ft | 5 kts | 220° |
| 2026-05-04 21:15 | 36.78561 | 27.09810 | 439 ft | 2 kts | 302° |
| 2026-05-04 21:15 | 36.78597 | 27.09787 | 443 ft | 12 kts | 328° |
| 2026-05-04 21:15 | 36.78831 | 27.09603 | 437 ft | 75 kts | 328° |
| 2026-05-04 21:15 | 36.79453 | 27.09120 | 435 ft | 132 kts | 328° |
| 2026-05-04 21:16 | 36.80342 | 27.08418 | 627 ft | 158 kts | 328° |
| 2026-05-04 21:16 | 36.81242 | 27.07645 | 1357 ft | 157 kts | 315° |
| 2026-05-04 21:16 | 36.81715 | 27.06421 | 1937 ft | 165 kts | 279° |
| 2026-05-04 21:16 | 36.81558 | 27.04917 | 2213 ft | 183 kts | 264° |
| 2026-05-04 21:17 | 36.81713 | 27.03346 | 2439 ft | 193 kts | 303° |
| 2026-05-04 21:17 | 36.82532 | 27.01934 | 2694 ft | 212 kts | 308° |
| 2026-05-04 21:17 | 36.83419 | 27.00382 | 3120 ft | 226 kts | 308° |
| 2026-05-04 21:17 | 36.84348 | 26.98691 | 3520 ft | 245 kts | 307° |
| 2026-05-04 21:18 | 36.85303 | 26.96900 | 4227 ft | 251 kts | 306° |
| 2026-05-04 21:18 | 36.86267 | 26.95055 | 4978 ft | 255 kts | 306° |
| 2026-05-04 21:18 | 36.87224 | 26.93202 | 5723 ft | 259 kts | 306° |
| 2026-05-04 21:18 | 36.88211 | 26.91277 | 6504 ft | 261 kts | 306° |
| 2026-05-04 21:19 | 36.89182 | 26.89381 | 7245 ft | 263 kts | 306° |
| 2026-05-04 21:19 | 36.90175 | 26.87441 | 8000 ft | 265 kts | 306° |
| 2026-05-04 21:19 | 36.91165 | 26.85496 | 8772 ft | 267 kts | 306° |
| 2026-05-04 21:19 | 36.92164 | 26.83534 | 9538 ft | 268 kts | 306° |
| 2026-05-04 21:20 | 36.93172 | 26.81554 | 10264 ft | 271 kts | 306° |
| 2026-05-04 21:20 | 36.94225 | 26.79489 | 10474 ft | 293 kts | 306° |
| 2026-05-04 21:20 | 36.95287 | 26.77202 | 10601 ft | 316 kts | 302° |
| 2026-05-04 21:20 | 36.96411 | 26.74732 | 10779 ft | 333 kts | 309° |
| 2026-05-04 21:21 | 36.98066 | 26.72718 | 11262 ft | 334 kts | 329° |
| 2026-05-04 21:21 | 37.00220 | 26.71651 | 11849 ft | 337 kts | 351° |
| 2026-05-04 21:21 | 37.02563 | 26.71760 | 12471 ft | 343 kts | 12° |
| 2026-05-04 21:21 | 37.04729 | 26.73060 | 13091 ft | 354 kts | 34° |
| 2026-05-04 21:22 | 37.06484 | 26.75274 | 13698 ft | 361 kts | 42° |
| 2026-05-04 21:22 | 37.08377 | 26.77232 | 14227 ft | 356 kts | 26° |
| 2026-05-04 21:22 | 37.10655 | 26.78381 | 14780 ft | 352 kts | 11° |
| 2026-05-04 21:22 | 37.13068 | 26.78846 | 15329 ft | 352 kts | 5° |
| 2026-05-04 21:23 | 37.15512 | 26.79258 | 15898 ft | 355 kts | 6° |
| 2026-05-04 21:23 | 37.17955 | 26.79701 | 16448 ft | 357 kts | 6° |
| 2026-05-04 21:23 | 37.20419 | 26.80167 | 16994 ft | 360 kts | 7° |
| 2026-05-04 21:23 | 37.22906 | 26.80643 | 17529 ft | 362 kts | 7° |
| 2026-05-04 21:24 | 37.25407 | 26.81122 | 18067 ft | 365 kts | 7° |
| 2026-05-04 21:24 | 37.27929 | 26.81600 | 18564 ft | 368 kts | 7° |
| 2026-05-04 21:24 | 37.30470 | 26.82077 | 19007 ft | 371 kts | 7° |
| 2026-05-04 21:24 | 37.33031 | 26.82556 | 19436 ft | 373 kts | 7° |
| 2026-05-04 21:25 | 37.35618 | 26.82951 | 19861 ft | 376 kts | 1° |
| 2026-05-04 21:25 | 37.38199 | 26.82750 | 20266 ft | 379 kts | 351° |
| 2026-05-04 21:25 | 37.40749 | 26.81843 | 20653 ft | 384 kts | 340° |
| 2026-05-04 21:25 | 37.43122 | 26.80244 | 21042 ft | 391 kts | 328° |
| 2026-05-04 21:26 | 37.45245 | 26.78060 | 21407 ft | 397 kts | 322° |
| 2026-05-04 21:26 | 37.47340 | 26.75776 | 21769 ft | 400 kts | 323° |
| 2026-05-04 21:26 | 37.49459 | 26.73483 | 22119 ft | 403 kts | 323° |
| 2026-05-04 21:26 | 37.51599 | 26.71177 | 22417 ft | 408 kts | 323° |
| 2026-05-04 21:27 | 37.53777 | 26.68832 | 22555 ft | 415 kts | 323° |
| 2026-05-04 21:27 | 37.55982 | 26.66451 | 22792 ft | 419 kts | 323° |
| 2026-05-04 21:27 | 37.58203 | 26.64044 | 23086 ft | 422 kts | 323° |
| 2026-05-04 21:27 | 37.60438 | 26.61621 | 23387 ft | 425 kts | 323° |
| 2026-05-04 21:28 | 37.62685 | 26.59181 | 23675 ft | 428 kts | 323° |
| 2026-05-04 21:28 | 37.64946 | 26.56724 | 23924 ft | 430 kts | 322° |
| 2026-05-04 21:28 | 37.67214 | 26.54255 | 24189 ft | 432 kts | 322° |
| 2026-05-04 21:28 | 37.69466 | 26.51801 | 24447 ft | 433 kts | 322° |
| 2026-05-04 21:29 | 37.71749 | 26.49322 | 24699 ft | 435 kts | 322° |
| 2026-05-04 21:29 | 37.74055 | 26.46829 | 24945 ft | 436 kts | 322° |
| 2026-05-04 21:29 | 37.76365 | 26.44332 | 25187 ft | 438 kts | 322° |
| 2026-05-04 21:29 | 37.78679 | 26.41822 | 25419 ft | 439 kts | 322° |
| 2026-05-04 21:30 | 37.80998 | 26.39299 | 25647 ft | 441 kts | 322° |
| 2026-05-04 21:30 | 37.83317 | 26.36768 | 25869 ft | 442 kts | 322° |
| 2026-05-04 21:30 | 37.85653 | 26.34215 | 26085 ft | 443 kts | 322° |
| 2026-05-04 21:30 | 37.87986 | 26.31666 | 26295 ft | 445 kts | 322° |
| 2026-05-04 21:31 | 37.92679 | 26.26518 | 26693 ft | 448 kts | 321° |
| 2026-05-04 21:31 | 37.95034 | 26.23930 | 26883 ft | 449 kts | 321° |
| 2026-05-04 21:31 | 37.97396 | 26.21334 | 27068 ft | 450 kts | 321° |
| 2026-05-04 21:32 | 37.99760 | 26.18733 | 27284 ft | 450 kts | 321° |
| 2026-05-04 21:32 | 38.02121 | 26.16128 | 27547 ft | 449 kts | 321° |
| 2026-05-04 21:32 | 38.04469 | 26.13530 | 27799 ft | 449 kts | 321° |
| 2026-05-04 21:32 | 38.06825 | 26.10922 | 28048 ft | 448 kts | 321° |
| 2026-05-04 21:33 | 38.09145 | 26.08360 | 28302 ft | 448 kts | 321° |
| 2026-05-04 21:33 | 38.11495 | 26.05765 | 28561 ft | 448 kts | 321° |
| 2026-05-04 21:33 | 38.13843 | 26.03168 | 28799 ft | 447 kts | 321° |
| 2026-05-04 21:33 | 38.16185 | 26.00570 | 29065 ft | 447 kts | 321° |
| 2026-05-04 21:34 | 38.18530 | 25.97967 | 29326 ft | 447 kts | 321° |
| 2026-05-04 21:34 | 38.20864 | 25.95378 | 29581 ft | 446 kts | 321° |
| 2026-05-04 21:34 | 38.23201 | 25.92782 | 29832 ft | 446 kts | 321° |
| 2026-05-04 21:34 | 38.25534 | 25.90184 | 30091 ft | 446 kts | 320° |
| 2026-05-04 21:35 | 38.27851 | 25.87560 | 30326 ft | 445 kts | 320° |
| 2026-05-04 21:35 | 38.30154 | 25.84914 | 30542 ft | 445 kts | 319° |
| 2026-05-04 21:35 | 38.32444 | 25.82263 | 30765 ft | 445 kts | 319° |
| 2026-05-04 21:35 | 38.34729 | 25.79613 | 30992 ft | 444 kts | 319° |
| 2026-05-04 21:36 | 38.37016 | 25.76965 | 31214 ft | 443 kts | 319° |
| 2026-05-04 21:36 | 38.39298 | 25.74326 | 31439 ft | 443 kts | 319° |
| 2026-05-04 21:36 | 38.41577 | 25.71693 | 31666 ft | 442 kts | 319° |
| 2026-05-04 21:36 | 38.43851 | 25.69072 | 31886 ft | 441 kts | 319° |
| 2026-05-04 21:37 | 38.46131 | 25.66443 | 32113 ft | 440 kts | 319° |
| 2026-05-04 21:37 | 38.48370 | 25.63855 | 32335 ft | 440 kts | 319° |
| 2026-05-04 21:37 | 38.50632 | 25.61233 | 32561 ft | 439 kts | 319° |
| 2026-05-04 21:37 | 38.52889 | 25.58611 | 32776 ft | 438 kts | 319° |
| 2026-05-04 21:38 | 38.55142 | 25.55990 | 33001 ft | 438 kts | 318° |
| 2026-05-04 21:38 | 38.57391 | 25.53372 | 33213 ft | 437 kts | 318° |
| 2026-05-04 21:38 | 38.59637 | 25.50759 | 33434 ft | 436 kts | 318° |
| 2026-05-04 21:38 | 38.61881 | 25.48149 | 33670 ft | 436 kts | 318° |
| 2026-05-04 21:39 | 38.64122 | 25.45544 | 33865 ft | 435 kts | 318° |
| 2026-05-04 21:39 | 38.66359 | 25.42940 | 34067 ft | 435 kts | 318° |
| 2026-05-04 21:39 | 38.68598 | 25.40326 | 34103 ft | 436 kts | 318° |
| 2026-05-04 21:40 | 38.73082 | 25.35078 | 34096 ft | 437 kts | 318° |
| 2026-05-04 21:40 | 38.77575 | 25.29815 | 34104 ft | 437 kts | 318° |
| 2026-05-04 21:41 | 38.82065 | 25.24547 | 34100 ft | 438 kts | 318° |
| 2026-05-04 21:41 | 38.86555 | 25.19278 | 34097 ft | 438 kts | 318° |
| 2026-05-04 21:42 | 38.91049 | 25.13987 | 34089 ft | 438 kts | 318° |
| 2026-05-04 21:42 | 38.95507 | 25.08728 | 34090 ft | 437 kts | 318° |
| 2026-05-04 21:43 | 38.99988 | 25.03433 | 34085 ft | 437 kts | 318° |
| 2026-05-04 21:43 | 39.04468 | 24.98136 | 34082 ft | 437 kts | 318° |
| 2026-05-04 21:44 | 39.08941 | 24.92824 | 34080 ft | 438 kts | 318° |
| 2026-05-04 21:44 | 39.13712 | 24.87977 | 34076 ft | 437 kts | 323° |
| 2026-05-04 21:45 | 39.18544 | 24.83312 | 34074 ft | 437 kts | 323° |
| 2026-05-04 21:45 | 39.23413 | 24.78611 | 34075 ft | 437 kts | 323° |
| 2026-05-04 21:46 | 39.28277 | 24.73893 | 34073 ft | 437 kts | 323° |
| 2026-05-04 21:46 | 39.33138 | 24.69159 | 34070 ft | 438 kts | 323° |
| 2026-05-04 21:47 | 39.37998 | 24.64414 | 34070 ft | 438 kts | 323° |
| 2026-05-04 21:47 | 39.42865 | 24.59670 | 34078 ft | 438 kts | 323° |
| 2026-05-04 21:48 | 39.47733 | 24.54919 | 34072 ft | 438 kts | 323° |
| 2026-05-04 21:48 | 39.52602 | 24.50159 | 34070 ft | 439 kts | 323° |
| 2026-05-04 21:49 | 39.57463 | 24.45393 | 34073 ft | 439 kts | 323° |
| 2026-05-04 21:49 | 39.62301 | 24.40637 | 34074 ft | 439 kts | 323° |
| 2026-05-04 21:50 | 39.67166 | 24.35846 | 34076 ft | 439 kts | 323° |
| 2026-05-04 21:50 | 39.72030 | 24.31049 | 34075 ft | 439 kts | 323° |
| 2026-05-04 21:51 | 39.76897 | 24.26249 | 34072 ft | 439 kts | 323° |
| 2026-05-04 21:51 | 39.81759 | 24.21440 | 34076 ft | 440 kts | 323° |
| 2026-05-04 21:52 | 39.86630 | 24.16607 | 34077 ft | 440 kts | 323° |
| 2026-05-04 21:52 | 39.91501 | 24.11767 | 34075 ft | 440 kts | 323° |
| 2026-05-04 21:53 | 39.96360 | 24.06930 | 34079 ft | 440 kts | 323° |
| 2026-05-04 21:53 | 40.01223 | 24.02081 | 34083 ft | 440 kts | 323° |
| 2026-05-04 21:54 | 40.06047 | 23.97258 | 34083 ft | 439 kts | 323° |
| 2026-05-04 21:54 | 40.10905 | 23.92402 | 34085 ft | 439 kts | 323° |
| 2026-05-04 21:55 | 40.15756 | 23.87545 | 34079 ft | 439 kts | 323° |
| 2026-05-04 21:55 | 40.20602 | 23.82677 | 34080 ft | 439 kts | 323° |
| 2026-05-04 21:56 | 40.25451 | 23.77788 | 34078 ft | 439 kts | 323° |
| 2026-05-04 21:56 | 40.30293 | 23.72908 | 34084 ft | 439 kts | 322° |
| 2026-05-04 21:57 | 40.35103 | 23.68045 | 34082 ft | 440 kts | 322° |
| 2026-05-04 21:57 | 40.39949 | 23.63138 | 34083 ft | 440 kts | 322° |
| 2026-05-04 21:58 | 40.44793 | 23.58229 | 34086 ft | 440 kts | 322° |
| 2026-05-04 21:58 | 40.49639 | 23.53313 | 34090 ft | 440 kts | 322° |
| 2026-05-04 21:59 | 40.54483 | 23.48388 | 34098 ft | 440 kts | 322° |
| 2026-05-04 21:59 | 40.59321 | 23.43454 | 34102 ft | 440 kts | 322° |
| 2026-05-04 22:00 | 40.64156 | 23.38517 | 34101 ft | 440 kts | 322° |
| 2026-05-04 22:00 | 40.68958 | 23.33612 | 34101 ft | 440 kts | 322° |
| 2026-05-04 22:01 | 40.73786 | 23.28665 | 34104 ft | 439 kts | 322° |
| 2026-05-04 22:01 | 40.78608 | 23.23705 | 34105 ft | 439 kts | 322° |
| 2026-05-04 22:02 | 40.82614 | 23.19580 | 34106 ft | 439 kts | 322° |
| 2026-05-04 22:02 | 40.87426 | 23.14615 | 34107 ft | 439 kts | 322° |
| 2026-05-04 22:03 | 40.92229 | 23.09646 | 34108 ft | 438 kts | 322° |
| 2026-05-04 22:03 | 40.97032 | 23.04685 | 34116 ft | 438 kts | 322° |
| 2026-05-04 22:04 | 41.01824 | 22.99719 | 34119 ft | 437 kts | 322° |
| 2026-05-04 22:04 | 41.06605 | 22.94749 | 34110 ft | 436 kts | 322° |
| 2026-05-04 22:05 | 41.11378 | 22.89792 | 34118 ft | 435 kts | 322° |
| 2026-05-04 22:05 | 41.16141 | 22.84835 | 34118 ft | 435 kts | 322° |
| 2026-05-04 22:06 | 41.20887 | 22.79866 | 34120 ft | 434 kts | 322° |
| 2026-05-04 22:06 | 41.25477 | 22.74746 | 34122 ft | 434 kts | 314° |
| 2026-05-04 22:07 | 41.29548 | 22.68803 | 34127 ft | 434 kts | 314° |
| 2026-05-04 22:07 | 41.33604 | 22.62872 | 34133 ft | 433 kts | 314° |
| 2026-05-04 22:08 | 41.37657 | 22.56926 | 34129 ft | 433 kts | 314° |
| 2026-05-04 22:08 | 41.41703 | 22.50992 | 34137 ft | 432 kts | 314° |
| 2026-05-04 22:09 | 41.45739 | 22.45058 | 34138 ft | 432 kts | 314° |
| 2026-05-04 22:09 | 41.49763 | 22.39117 | 34143 ft | 431 kts | 314° |
| 2026-05-04 22:10 | 41.53783 | 22.33181 | 34141 ft | 431 kts | 314° |
| 2026-05-04 22:10 | 41.57768 | 22.27280 | 34145 ft | 430 kts | 314° |
| 2026-05-04 22:11 | 41.61769 | 22.21334 | 34144 ft | 430 kts | 314° |
| 2026-05-04 22:11 | 41.65766 | 22.15393 | 34142 ft | 429 kts | 314° |
| 2026-05-04 22:12 | 41.69762 | 22.09446 | 34139 ft | 429 kts | 314° |
| 2026-05-04 22:12 | 41.73745 | 22.03503 | 34139 ft | 429 kts | 314° |
| 2026-05-04 22:13 | 41.77718 | 21.97556 | 34135 ft | 428 kts | 314° |
| 2026-05-04 22:13 | 41.81686 | 21.91611 | 34142 ft | 428 kts | 314° |
| 2026-05-04 22:14 | 41.85640 | 21.85670 | 34139 ft | 427 kts | 314° |
| 2026-05-04 22:14 | 41.89591 | 21.79720 | 34142 ft | 427 kts | 314° |
| 2026-05-04 22:15 | 41.93512 | 21.73802 | 34140 ft | 426 kts | 314° |
| 2026-05-04 22:15 | 41.97450 | 21.67848 | 34140 ft | 426 kts | 314° |
| 2026-05-04 22:16 | 42.01383 | 21.61904 | 34137 ft | 426 kts | 314° |
| 2026-05-04 22:16 | 42.05315 | 21.55941 | 34135 ft | 425 kts | 314° |
| 2026-05-04 22:17 | 42.09236 | 21.49975 | 34132 ft | 425 kts | 314° |
| 2026-05-04 22:17 | 42.13152 | 21.44001 | 34140 ft | 425 kts | 314° |
| 2026-05-04 22:18 | 42.17041 | 21.38057 | 34139 ft | 425 kts | 314° |
| 2026-05-04 22:18 | 42.20888 | 21.31996 | 34149 ft | 425 kts | 313° |
| 2026-05-04 22:19 | 42.24703 | 21.25889 | 34150 ft | 426 kts | 313° |
| 2026-05-04 22:19 | 42.28523 | 21.19780 | 34153 ft | 426 kts | 313° |
| 2026-05-04 22:20 | 42.32350 | 21.13685 | 34152 ft | 426 kts | 313° |
| 2026-05-04 22:20 | 42.36182 | 21.07579 | 34154 ft | 426 kts | 313° |
| 2026-05-04 22:21 | 42.40011 | 21.01461 | 34152 ft | 426 kts | 313° |
| 2026-05-04 22:21 | 42.43833 | 20.95335 | 34158 ft | 426 kts | 313° |
| 2026-05-04 22:22 | 42.47625 | 20.89231 | 34157 ft | 425 kts | 313° |
| 2026-05-04 22:22 | 42.51437 | 20.83100 | 34166 ft | 425 kts | 313° |
| 2026-05-04 22:23 | 42.55245 | 20.76967 | 34162 ft | 425 kts | 313° |
| 2026-05-04 22:23 | 42.59044 | 20.70829 | 34164 ft | 425 kts | 313° |
| 2026-05-04 22:24 | 42.62829 | 20.64686 | 34162 ft | 424 kts | 313° |
| 2026-05-04 22:24 | 42.66616 | 20.58537 | 34164 ft | 424 kts | 313° |
| 2026-05-04 22:25 | 42.70399 | 20.52384 | 34160 ft | 424 kts | 313° |
| 2026-05-04 22:25 | 42.74177 | 20.46228 | 34162 ft | 424 kts | 313° |
| 2026-05-04 22:26 | 42.77933 | 20.40099 | 34163 ft | 424 kts | 312° |
| 2026-05-04 22:26 | 42.81703 | 20.33915 | 34166 ft | 424 kts | 312° |
| 2026-05-04 22:27 | 42.85475 | 20.27722 | 34169 ft | 424 kts | 313° |
| 2026-05-04 22:27 | 42.89250 | 20.21539 | 34171 ft | 424 kts | 313° |
| 2026-05-04 22:28 | 42.93000 | 20.15383 | 34175 ft | 424 kts | 312° |
| 2026-05-04 22:28 | 42.96756 | 20.09182 | 34176 ft | 424 kts | 312° |
| 2026-05-04 22:29 | 43.00514 | 20.02961 | 34179 ft | 424 kts | 312° |
| 2026-05-04 22:29 | 43.04262 | 19.96748 | 34173 ft | 424 kts | 312° |
| 2026-05-04 22:30 | 43.08011 | 19.90523 | 34176 ft | 424 kts | 312° |
| 2026-05-04 22:30 | 43.11760 | 19.84290 | 34173 ft | 424 kts | 312° |
| 2026-05-04 22:31 | 43.15510 | 19.78039 | 34162 ft | 424 kts | 312° |
| 2026-05-04 22:31 | 43.19250 | 19.71789 | 34165 ft | 424 kts | 312° |
| 2026-05-04 22:32 | 43.22988 | 19.65522 | 34166 ft | 424 kts | 312° |
| 2026-05-04 22:32 | 43.26692 | 19.59288 | 34161 ft | 424 kts | 312° |
| 2026-05-04 22:33 | 43.30415 | 19.53002 | 34160 ft | 424 kts | 312° |
| 2026-05-04 22:33 | 43.34126 | 19.46701 | 34159 ft | 424 kts | 312° |
| 2026-05-04 22:34 | 43.37856 | 19.40416 | 34146 ft | 424 kts | 312° |
| 2026-05-04 22:34 | 43.41593 | 19.34132 | 34145 ft | 424 kts | 312° |
| 2026-05-04 22:35 | 43.45322 | 19.27828 | 34143 ft | 425 kts | 312° |
| 2026-05-04 22:35 | 43.49041 | 19.21512 | 34138 ft | 425 kts | 312° |
| 2026-05-04 22:36 | 43.52755 | 19.15172 | 34133 ft | 425 kts | 311° |
| 2026-05-04 22:36 | 43.56528 | 19.08892 | 34134 ft | 424 kts | 313° |
| 2026-05-04 22:37 | 43.60385 | 19.02741 | 34127 ft | 424 kts | 314° |
| 2026-05-04 22:37 | 43.64245 | 18.96578 | 34138 ft | 424 kts | 313° |
| 2026-05-04 22:38 | 43.68078 | 18.90376 | 34117 ft | 424 kts | 313° |
| 2026-05-04 22:38 | 43.71869 | 18.84190 | 34123 ft | 424 kts | 313° |
| 2026-05-04 22:39 | 43.75683 | 18.77958 | 34122 ft | 424 kts | 313° |
| 2026-05-04 22:39 | 43.79499 | 18.71728 | 34127 ft | 424 kts | 313° |
| 2026-05-04 22:40 | 43.83302 | 18.65500 | 34131 ft | 424 kts | 313° |
| 2026-05-04 22:40 | 43.87107 | 18.59263 | 34132 ft | 424 kts | 313° |
| 2026-05-04 22:41 | 43.90910 | 18.53023 | 34128 ft | 424 kts | 313° |
| 2026-05-04 22:41 | 43.94703 | 18.46762 | 34127 ft | 424 kts | 313° |
| 2026-05-04 22:42 | 43.98493 | 18.40487 | 34124 ft | 424 kts | 313° |
| 2026-05-04 22:42 | 44.02282 | 18.34211 | 34118 ft | 424 kts | 313° |
| 2026-05-04 22:43 | 44.06049 | 18.27966 | 34115 ft | 424 kts | 313° |
| 2026-05-04 22:43 | 44.09830 | 18.21669 | 34106 ft | 424 kts | 313° |
| 2026-05-04 22:44 | 44.13607 | 18.15376 | 34101 ft | 424 kts | 312° |
| 2026-05-04 22:44 | 44.17393 | 18.09063 | 34094 ft | 424 kts | 312° |
| 2026-05-04 22:45 | 44.21170 | 18.02753 | 34095 ft | 424 kts | 312° |
| 2026-05-04 22:45 | 44.26830 | 17.93246 | 34091 ft | 425 kts | 312° |
| 2026-05-04 22:46 | 44.30603 | 17.86899 | 34093 ft | 425 kts | 312° |
| 2026-05-04 22:46 | 44.34352 | 17.80571 | 34094 ft | 425 kts | 312° |
| 2026-05-04 22:47 | 44.38123 | 17.74210 | 34099 ft | 425 kts | 312° |
| 2026-05-04 22:47 | 44.41991 | 17.67939 | 34094 ft | 425 kts | 313° |
| 2026-05-04 22:48 | 44.45893 | 17.61716 | 34093 ft | 425 kts | 313° |
| 2026-05-04 22:48 | 44.49772 | 17.55453 | 34090 ft | 426 kts | 313° |
| 2026-05-04 22:49 | 44.53646 | 17.49170 | 34088 ft | 426 kts | 313° |
| 2026-05-04 22:49 | 44.57497 | 17.42905 | 34090 ft | 427 kts | 313° |
| 2026-05-04 22:50 | 44.61357 | 17.36589 | 34082 ft | 427 kts | 313° |
| 2026-05-04 22:50 | 44.65227 | 17.30251 | 34080 ft | 427 kts | 312° |
| 2026-05-04 22:51 | 44.69080 | 17.23893 | 34079 ft | 427 kts | 312° |
| 2026-05-04 22:51 | 44.72920 | 17.17513 | 34076 ft | 427 kts | 312° |
| 2026-05-04 22:52 | 44.76763 | 17.11123 | 34078 ft | 428 kts | 312° |
| 2026-05-04 22:52 | 44.80615 | 17.04736 | 34075 ft | 428 kts | 312° |
| 2026-05-04 22:53 | 44.84432 | 16.98372 | 34076 ft | 428 kts | 312° |
| 2026-05-04 22:53 | 44.88268 | 16.91951 | 34074 ft | 428 kts | 311° |
| 2026-05-04 22:54 | 44.92102 | 16.85519 | 34071 ft | 428 kts | 311° |
| 2026-05-04 22:54 | 44.95933 | 16.79071 | 34065 ft | 428 kts | 311° |
| 2026-05-04 22:55 | 44.99759 | 16.72616 | 34065 ft | 428 kts | 311° |
| 2026-05-04 22:55 | 45.03598 | 16.66175 | 34062 ft | 428 kts | 311° |
| 2026-05-04 22:56 | 45.07404 | 16.59758 | 34068 ft | 429 kts | 311° |
| 2026-05-04 22:56 | 45.11229 | 16.53276 | 34060 ft | 429 kts | 311° |
| 2026-05-04 22:57 | 45.15037 | 16.46793 | 34063 ft | 428 kts | 311° |
| 2026-05-04 22:57 | 45.18804 | 16.40243 | 34067 ft | 429 kts | 310° |
| 2026-05-04 22:58 | 45.22531 | 16.33631 | 34061 ft | 429 kts | 310° |
| 2026-05-04 22:58 | 45.26250 | 16.27028 | 34068 ft | 429 kts | 310° |
| 2026-05-04 22:59 | 45.29968 | 16.20467 | 34064 ft | 429 kts | 310° |
| 2026-05-04 22:59 | 45.33701 | 16.13869 | 34063 ft | 429 kts | 310° |
| 2026-05-04 23:00 | 45.37426 | 16.07252 | 34054 ft | 429 kts | 310° |
| 2026-05-04 23:00 | 45.41144 | 16.00615 | 34064 ft | 429 kts | 310° |
| 2026-05-04 23:01 | 45.44859 | 15.93966 | 34060 ft | 429 kts | 310° |
| 2026-05-04 23:01 | 45.47946 | 15.88443 | 34055 ft | 429 kts | 310° |
| 2026-05-04 23:02 | 45.51661 | 15.81783 | 34054 ft | 429 kts | 310° |
| 2026-05-04 23:02 | 45.55374 | 15.75113 | 34058 ft | 429 kts | 310° |
| 2026-05-04 23:03 | 45.59082 | 15.68434 | 34045 ft | 429 kts | 309° |
| 2026-05-04 23:03 | 45.62783 | 15.61742 | 34048 ft | 430 kts | 309° |
| 2026-05-04 23:04 | 45.66490 | 15.55034 | 34046 ft | 430 kts | 309° |
| 2026-05-04 23:04 | 45.70167 | 15.48353 | 34050 ft | 430 kts | 309° |
| 2026-05-04 23:05 | 45.73875 | 15.41608 | 34060 ft | 431 kts | 309° |
| 2026-05-04 23:05 | 45.77586 | 15.34852 | 34049 ft | 431 kts | 310° |
| 2026-05-04 23:06 | 45.81513 | 15.28353 | 34050 ft | 431 kts | 313° |
| 2026-05-04 23:06 | 45.85618 | 15.22073 | 34053 ft | 432 kts | 314° |
| 2026-05-04 23:07 | 45.89710 | 15.15751 | 34055 ft | 433 kts | 313° |
| 2026-05-04 23:07 | 45.93721 | 15.09374 | 34058 ft | 433 kts | 312° |
| 2026-05-04 23:08 | 45.97742 | 15.02919 | 34044 ft | 434 kts | 312° |
| 2026-05-04 23:08 | 46.01772 | 14.96458 | 34063 ft | 434 kts | 312° |
| 2026-05-04 23:09 | 46.05811 | 14.89985 | 34066 ft | 435 kts | 312° |
| 2026-05-04 23:09 | 46.09856 | 14.83500 | 34068 ft | 435 kts | 312° |
| 2026-05-04 23:10 | 46.13901 | 14.77000 | 34071 ft | 436 kts | 312° |
| 2026-05-04 23:10 | 46.17946 | 14.70468 | 34077 ft | 437 kts | 311° |
| 2026-05-04 23:11 | 46.21958 | 14.63957 | 34075 ft | 437 kts | 311° |
| 2026-05-04 23:11 | 46.26002 | 14.57393 | 34077 ft | 437 kts | 311° |
| 2026-05-04 23:12 | 46.30050 | 14.50821 | 34077 ft | 438 kts | 311° |
| 2026-05-04 23:12 | 46.34094 | 14.44229 | 34075 ft | 438 kts | 311° |
| 2026-05-04 23:13 | 46.38143 | 14.37615 | 34069 ft | 439 kts | 311° |
| 2026-05-04 23:13 | 46.42197 | 14.30977 | 34066 ft | 440 kts | 311° |
| 2026-05-04 23:14 | 46.46219 | 14.24371 | 34060 ft | 440 kts | 310° |
| 2026-05-04 23:14 | 46.50272 | 14.17699 | 34051 ft | 440 kts | 310° |
| 2026-05-04 23:15 | 46.54327 | 14.11027 | 34055 ft | 441 kts | 310° |
| 2026-05-04 23:15 | 46.58380 | 14.04336 | 34061 ft | 441 kts | 310° |
| 2026-05-04 23:16 | 46.62423 | 13.97621 | 34060 ft | 441 kts | 310° |
| 2026-05-04 23:16 | 46.66445 | 13.90927 | 34063 ft | 442 kts | 310° |
| 2026-05-04 23:17 | 46.70492 | 13.84184 | 34054 ft | 442 kts | 310° |
| 2026-05-04 23:17 | 46.74538 | 13.77434 | 34059 ft | 443 kts | 310° |
| 2026-05-04 23:18 | 46.78591 | 13.70660 | 34059 ft | 443 kts | 310° |
| 2026-05-04 23:18 | 46.82638 | 13.63864 | 34055 ft | 444 kts | 309° |
| 2026-05-04 23:19 | 46.86682 | 13.57045 | 34058 ft | 444 kts | 309° |
| 2026-05-04 23:19 | 46.90727 | 13.50219 | 34060 ft | 444 kts | 309° |
| 2026-05-04 23:20 | 46.94776 | 13.43383 | 34058 ft | 444 kts | 309° |
| 2026-05-04 23:20 | 46.98792 | 13.36579 | 34067 ft | 444 kts | 309° |
| 2026-05-04 23:21 | 47.02830 | 13.29718 | 34063 ft | 445 kts | 309° |
| 2026-05-04 23:21 | 47.06868 | 13.22835 | 34049 ft | 445 kts | 309° |
| 2026-05-04 23:22 | 47.10893 | 13.15959 | 34051 ft | 445 kts | 309° |
| 2026-05-04 23:22 | 47.14917 | 13.09062 | 34043 ft | 445 kts | 309° |
| 2026-05-04 23:23 | 47.18937 | 13.02148 | 34039 ft | 445 kts | 308° |
| 2026-05-04 23:23 | 47.22958 | 12.95217 | 34035 ft | 445 kts | 308° |
| 2026-05-04 23:24 | 47.26971 | 12.88288 | 34029 ft | 445 kts | 308° |
| 2026-05-04 23:24 | 47.30986 | 12.81350 | 34015 ft | 445 kts | 308° |
| 2026-05-04 23:25 | 47.35000 | 12.74402 | 34014 ft | 445 kts | 308° |
| 2026-05-04 23:25 | 47.38979 | 12.67486 | 34003 ft | 445 kts | 308° |
| 2026-05-04 23:26 | 47.42980 | 12.60510 | 34000 ft | 445 kts | 308° |
| 2026-05-04 23:26 | 47.46992 | 12.53493 | 33978 ft | 449 kts | 307° |
| 2026-05-04 23:27 | 47.51021 | 12.46431 | 33960 ft | 450 kts | 307° |
| 2026-05-04 23:27 | 47.55057 | 12.39344 | 33962 ft | 451 kts | 307° |
| 2026-05-04 23:28 | 47.59094 | 12.32233 | 33963 ft | 451 kts | 307° |
| 2026-05-04 23:28 | 47.63131 | 12.25091 | 33966 ft | 451 kts | 307° |
| 2026-05-04 23:29 | 47.66619 | 12.17423 | 33967 ft | 449 kts | 299° |
| 2026-05-04 23:29 | 47.69893 | 12.09600 | 33972 ft | 449 kts | 299° |
| 2026-05-04 23:30 | 47.73188 | 12.01735 | 33977 ft | 448 kts | 299° |
| 2026-05-04 23:30 | 47.76477 | 11.93863 | 33978 ft | 448 kts | 299° |
| 2026-05-04 23:31 | 47.79755 | 11.85985 | 33976 ft | 448 kts | 299° |
| 2026-05-04 23:31 | 47.83024 | 11.78099 | 33975 ft | 448 kts | 299° |
| 2026-05-04 23:32 | 47.86282 | 11.70205 | 33979 ft | 447 kts | 299° |
| 2026-05-04 23:32 | 47.89531 | 11.62305 | 33984 ft | 447 kts | 299° |
| 2026-05-04 23:33 | 47.92761 | 11.54444 | 33983 ft | 447 kts | 299° |
| 2026-05-04 23:33 | 47.95999 | 11.46540 | 33989 ft | 446 kts | 298° |
| 2026-05-04 23:34 | 47.99233 | 11.38629 | 33992 ft | 446 kts | 298° |
| 2026-05-04 23:34 | 48.02457 | 11.30718 | 33992 ft | 446 kts | 298° |
| 2026-05-04 23:35 | 48.05675 | 11.22790 | 33993 ft | 445 kts | 298° |
| 2026-05-04 23:35 | 48.08878 | 11.14869 | 33993 ft | 445 kts | 298° |
| 2026-05-04 23:36 | 48.12055 | 11.06999 | 33993 ft | 444 kts | 298° |
| 2026-05-04 23:36 | 48.15246 | 10.99072 | 33968 ft | 444 kts | 298° |
| 2026-05-04 23:37 | 48.18430 | 10.91140 | 33964 ft | 444 kts | 298° |
| 2026-05-04 23:37 | 48.21605 | 10.83204 | 33961 ft | 444 kts | 297° |
| 2026-05-04 23:38 | 48.24774 | 10.75265 | 33958 ft | 444 kts | 297° |
| 2026-05-04 23:38 | 48.26870 | 10.69996 | 33959 ft | 444 kts | 297° |
| 2026-05-04 23:39 | 48.29382 | 10.63667 | 33962 ft | 444 kts | 297° |
| 2026-05-04 23:39 | 48.32541 | 10.55694 | 33962 ft | 444 kts | 297° |
| 2026-05-04 23:40 | 48.35699 | 10.47701 | 33971 ft | 445 kts | 297° |
| 2026-05-04 23:40 | 48.38855 | 10.39692 | 33974 ft | 445 kts | 297° |
| 2026-05-04 23:41 | 48.42003 | 10.31667 | 33974 ft | 445 kts | 297° |
| 2026-05-04 23:41 | 48.45148 | 10.23618 | 33969 ft | 446 kts | 297° |
| 2026-05-04 23:42 | 48.48288 | 10.15565 | 33973 ft | 446 kts | 296° |
| 2026-05-04 23:42 | 48.51436 | 10.07478 | 33971 ft | 447 kts | 296° |
| 2026-05-04 23:43 | 48.54576 | 9.99381 | 33971 ft | 447 kts | 296° |
| 2026-05-04 23:43 | 48.57709 | 9.91274 | 33971 ft | 448 kts | 296° |
| 2026-05-04 23:44 | 48.60818 | 9.83194 | 33970 ft | 448 kts | 296° |
| 2026-05-04 23:44 | 48.63950 | 9.75045 | 33976 ft | 448 kts | 296° |
| 2026-05-04 23:45 | 48.67097 | 9.66903 | 33975 ft | 450 kts | 299° |
| 2026-05-04 23:45 | 48.70846 | 9.59274 | 33978 ft | 452 kts | 303° |
| 2026-05-04 23:46 | 48.74641 | 9.51670 | 33980 ft | 452 kts | 303° |
| 2026-05-04 23:46 | 48.78428 | 9.44041 | 33989 ft | 453 kts | 303° |
| 2026-05-04 23:47 | 48.82208 | 9.36409 | 33978 ft | 453 kts | 303° |
| 2026-05-04 23:47 | 48.85958 | 9.28814 | 33978 ft | 452 kts | 302° |
| 2026-05-04 23:48 | 48.89754 | 9.21111 | 33976 ft | 453 kts | 302° |
| 2026-05-04 23:48 | 48.93503 | 9.13495 | 33982 ft | 453 kts | 302° |
| 2026-05-04 23:49 | 48.97270 | 9.05812 | 33979 ft | 453 kts | 302° |
| 2026-05-04 23:49 | 49.01028 | 8.98116 | 33979 ft | 453 kts | 302° |
| 2026-05-04 23:50 | 49.04778 | 8.90403 | 33982 ft | 453 kts | 302° |
| 2026-05-04 23:50 | 49.08530 | 8.82672 | 33984 ft | 453 kts | 302° |
| 2026-05-04 23:51 | 49.12275 | 8.74950 | 33982 ft | 453 kts | 302° |
| 2026-05-04 23:51 | 49.16020 | 8.67200 | 33982 ft | 452 kts | 302° |
| 2026-05-04 23:52 | 49.19726 | 8.59514 | 33989 ft | 452 kts | 302° |
| 2026-05-04 23:52 | 49.23471 | 8.51725 | 33991 ft | 452 kts | 301° |
| 2026-05-04 23:53 | 49.27151 | 8.44020 | 33995 ft | 451 kts | 301° |
| 2026-05-04 23:53 | 49.30854 | 8.36267 | 33992 ft | 451 kts | 301° |
| 2026-05-04 23:54 | 49.34549 | 8.28506 | 33993 ft | 450 kts | 301° |
| 2026-05-04 23:54 | 49.38236 | 8.20741 | 33988 ft | 450 kts | 301° |
| 2026-05-04 23:55 | 49.41913 | 8.12961 | 33984 ft | 450 kts | 301° |
| 2026-05-04 23:56 | 49.47417 | 8.01286 | 33981 ft | 450 kts | 301° |
| 2026-05-04 23:56 | 49.51073 | 7.93472 | 33978 ft | 450 kts | 300° |
| 2026-05-04 23:57 | 49.54714 | 7.85647 | 33977 ft | 450 kts | 301° |
| 2026-05-04 23:57 | 49.58364 | 7.77818 | 33977 ft | 450 kts | 301° |
| 2026-05-04 23:58 | 49.62016 | 7.69986 | 33972 ft | 450 kts | 301° |
| 2026-05-04 23:58 | 49.65640 | 7.62195 | 33967 ft | 450 kts | 301° |
| 2026-05-04 23:59 | 49.69276 | 7.54347 | 33977 ft | 450 kts | 301° |
| 2026-05-04 23:59 | 49.72906 | 7.46486 | 33980 ft | 449 kts | 301° |
| 2026-05-05 00:00 | 49.75943 | 7.39895 | 33982 ft | 449 kts | 301° |
| 2026-05-05 00:00 | 49.79540 | 7.32049 | 33982 ft | 449 kts | 301° |
| 2026-05-05 00:01 | 49.83150 | 7.24145 | 33987 ft | 449 kts | 301° |
| 2026-05-05 00:01 | 49.86754 | 7.16240 | 33987 ft | 449 kts | 301° |
| 2026-05-05 00:02 | 49.90378 | 7.08346 | 33989 ft | 449 kts | 301° |
| 2026-05-05 00:02 | 49.93986 | 7.00443 | 33982 ft | 449 kts | 301° |
| 2026-05-05 00:03 | 49.97574 | 6.92519 | 33961 ft | 448 kts | 301° |
| 2026-05-05 00:03 | 50.01152 | 6.84587 | 33962 ft | 448 kts | 301° |
| 2026-05-05 00:04 | 50.04715 | 6.76649 | 33964 ft | 447 kts | 301° |
| 2026-05-05 00:04 | 50.08276 | 6.68712 | 33959 ft | 447 kts | 301° |
| 2026-05-05 00:05 | 50.11826 | 6.60771 | 33957 ft | 446 kts | 300° |
| 2026-05-05 00:05 | 50.15357 | 6.52828 | 33959 ft | 446 kts | 300° |
| 2026-05-05 00:06 | 50.18857 | 6.44916 | 33959 ft | 445 kts | 299° |
| 2026-05-05 00:06 | 50.22186 | 6.36785 | 33957 ft | 444 kts | 297° |
| 2026-05-05 00:07 | 50.25366 | 6.28532 | 33957 ft | 443 kts | 296° |
| 2026-05-05 00:07 | 50.28539 | 6.20287 | 33957 ft | 443 kts | 296° |
| 2026-05-05 00:08 | 50.31759 | 6.12064 | 33960 ft | 443 kts | 297° |
| 2026-05-05 00:08 | 50.34986 | 6.03848 | 33963 ft | 443 kts | 297° |
| 2026-05-05 00:09 | 50.38196 | 5.95616 | 33957 ft | 443 kts | 297° |
| 2026-05-05 00:09 | 50.41392 | 5.87360 | 33959 ft | 443 kts | 297° |
| 2026-05-05 00:10 | 50.44586 | 5.79106 | 33957 ft | 443 kts | 297° |
| 2026-05-05 00:10 | 50.47760 | 5.70873 | 33958 ft | 444 kts | 297° |
| 2026-05-05 00:11 | 50.50946 | 5.62563 | 33956 ft | 444 kts | 297° |
| 2026-05-05 00:11 | 50.54117 | 5.54237 | 33953 ft | 444 kts | 297° |
| 2026-05-05 00:12 | 50.57306 | 5.45915 | 33953 ft | 444 kts | 297° |
| 2026-05-05 00:12 | 50.60485 | 5.37584 | 33947 ft | 444 kts | 297° |
| 2026-05-05 00:13 | 50.63648 | 5.29239 | 33937 ft | 444 kts | 297° |
| 2026-05-05 00:13 | 50.66805 | 5.20880 | 33938 ft | 444 kts | 298° |
| 2026-05-05 00:14 | 50.69943 | 5.12563 | 33943 ft | 444 kts | 298° |
| 2026-05-05 00:14 | 50.73094 | 5.04193 | 33943 ft | 444 kts | 298° |
| 2026-05-05 00:15 | 50.76237 | 4.95804 | 33944 ft | 444 kts | 298° |
| 2026-05-05 00:15 | 50.79369 | 4.87398 | 33942 ft | 444 kts | 298° |
| 2026-05-05 00:16 | 50.82494 | 4.78981 | 33949 ft | 444 kts | 298° |
| 2026-05-05 00:16 | 50.85620 | 4.70563 | 33948 ft | 444 kts | 298° |
| 2026-05-05 00:17 | 50.88743 | 4.62128 | 33951 ft | 444 kts | 298° |
| 2026-05-05 00:17 | 50.91844 | 4.53690 | 33955 ft | 444 kts | 298° |
| 2026-05-05 00:18 | 50.94917 | 4.45275 | 33951 ft | 444 kts | 298° |
| 2026-05-05 00:18 | 50.98022 | 4.36814 | 33955 ft | 444 kts | 298° |
| 2026-05-05 00:19 | 51.01120 | 4.28327 | 33956 ft | 444 kts | 298° |
| 2026-05-05 00:19 | 51.04213 | 4.19840 | 33966 ft | 444 kts | 298° |
| 2026-05-05 00:20 | 51.07295 | 4.11336 | 33962 ft | 444 kts | 298° |
| 2026-05-05 00:20 | 51.10364 | 4.02828 | 33960 ft | 444 kts | 298° |
| 2026-05-05 00:21 | 51.13383 | 3.94340 | 33952 ft | 444 kts | 298° |
| 2026-05-05 00:21 | 51.16429 | 3.85790 | 33956 ft | 444 kts | 298° |
| 2026-05-05 00:22 | 51.19489 | 3.77234 | 33961 ft | 444 kts | 298° |
| 2026-05-05 00:22 | 51.22526 | 3.68669 | 33965 ft | 443 kts | 294° |
| 2026-05-05 00:23 | 51.24444 | 3.59399 | 33972 ft | 440 kts | 280° |
| 2026-05-05 00:23 | 51.25707 | 3.49827 | 33976 ft | 440 kts | 280° |
| 2026-05-05 00:24 | 51.26991 | 3.40328 | 33985 ft | 440 kts | 280° |
| 2026-05-05 00:24 | 51.28249 | 3.30779 | 33992 ft | 439 kts | 279° |
| 2026-05-05 00:25 | 51.29473 | 3.21216 | 33999 ft | 439 kts | 279° |
| 2026-05-05 00:25 | 51.30683 | 3.11657 | 34005 ft | 439 kts | 279° |
| 2026-05-05 00:26 | 51.31885 | 3.02076 | 34009 ft | 439 kts | 279° |
| 2026-05-05 00:26 | 51.33086 | 2.92496 | 34010 ft | 439 kts | 279° |
| 2026-05-05 00:27 | 51.34287 | 2.82915 | 34008 ft | 439 kts | 279° |
| 2026-05-05 00:27 | 51.35932 | 2.73497 | 34006 ft | 443 kts | 292° |
| 2026-05-05 00:28 | 51.39069 | 2.65053 | 34019 ft | 445 kts | 301° |
| 2026-05-05 00:28 | 51.42537 | 2.56840 | 34024 ft | 444 kts | 300° |
| 2026-05-05 00:29 | 51.45727 | 2.48399 | 34024 ft | 442 kts | 296° |
| 2026-05-05 00:29 | 51.48707 | 2.39778 | 34016 ft | 441 kts | 296° |
| 2026-05-05 00:30 | 51.51663 | 2.31138 | 34016 ft | 441 kts | 296° |
| 2026-05-05 00:30 | 51.54644 | 2.22584 | 34011 ft | 441 kts | 296° |